createdAt,value
2018-02-05T00:01:14.420Z,83.36
2018-02-05T00:03:42.821Z,83.41
2018-02-05T00:06:11.287Z,83.50
2018-02-05T00:08:39.746Z,83.07
2018-02-05T00:11:08.173Z,83.24
2018-02-05T00:13:36.575Z,83.33
2018-02-05T00:16:05.054Z,83.18
2018-02-05T00:18:33.486Z,82.86
2018-02-05T00:21:01.890Z,83.01
2018-02-05T00:23:30.422Z,83.34
2018-02-05T00:25:58.837Z,83.39
2018-02-05T00:28:27.246Z,83.36
2018-02-05T00:30:55.684Z,83.20
2018-02-05T00:33:24.088Z,83.25
2018-02-05T00:35:52.500Z,83.09
2018-02-05T00:38:20.959Z,82.90
2018-02-05T00:40:49.363Z,83.17
2018-02-05T00:43:17.804Z,83.18
2018-02-05T00:45:46.264Z,83.22
2018-02-05T00:48:14.696Z,83.14
2018-02-05T00:50:43.131Z,83.25
2018-02-05T00:53:11.623Z,83.85
2018-02-05T00:55:40.050Z,83.73
2018-02-05T00:58:08.453Z,84.03
2018-02-05T01:00:36.911Z,83.95
2018-02-05T01:03:05.324Z,83.89
2018-02-05T01:05:33.756Z,84.17
2018-02-05T01:08:02.194Z,84.24
2018-02-05T01:10:30.580Z,84.71
2018-02-05T01:12:58.992Z,84.44
2018-02-05T01:15:27.460Z,84.49
2018-02-05T01:17:55.858Z,85.30
2018-02-05T01:20:24.267Z,85.41
2018-02-05T01:22:52.956Z,85.69
2018-02-05T01:25:21.419Z,85.88
2018-02-05T01:27:49.831Z,86.04
2018-02-05T01:30:18.278Z,85.87
2018-02-05T01:32:46.693Z,85.60
2018-02-05T01:35:15.100Z,85.97
2018-02-05T01:37:43.553Z,86.59
2018-02-05T01:40:11.974Z,86.33
2018-02-05T01:42:40.373Z,86.70
2018-02-05T01:45:08.853Z,87.18
2018-02-05T01:47:37.261Z,87.34
2018-02-05T01:50:05.667Z,87.07
2018-02-05T01:52:34.145Z,87.36
2018-02-05T01:55:02.545Z,87.19
2018-02-05T01:57:30.959Z,87.08
2018-02-05T01:59:59.470Z,87.07
2018-02-05T02:02:27.874Z,86.86
2018-02-05T02:04:56.278Z,86.64
2018-02-05T02:07:24.719Z,86.81
2018-02-05T02:09:53.118Z,86.60
2018-02-05T02:12:21.517Z,86.58
2018-02-05T02:14:49.983Z,86.28
2018-02-05T02:17:18.474Z,86.60
2018-02-05T02:19:46.940Z,86.77
2018-02-05T02:22:15.437Z,87.03
2018-02-05T02:24:43.857Z,86.26
2018-02-05T02:27:12.261Z,86.50
2018-02-05T02:29:40.760Z,86.65
2018-02-05T02:32:09.187Z,86.17
2018-02-05T02:34:37.620Z,86.29
2018-02-05T02:37:06.095Z,85.87
2018-02-05T02:39:34.511Z,85.96
2018-02-05T02:42:02.929Z,86.35
2018-02-05T02:44:31.380Z,86.34
2018-02-05T02:46:59.826Z,86.33
2018-02-05T02:49:28.240Z,86.78
2018-02-05T02:51:56.685Z,86.53
2018-02-05T02:54:25.082Z,86.75
2018-02-05T02:56:53.517Z,86.91
2018-02-05T02:59:21.969Z,87.15
2018-02-05T03:01:50.379Z,87.06
2018-02-05T03:04:18.808Z,86.75
2018-02-05T03:06:47.280Z,86.90
2018-02-05T03:09:15.704Z,87.30
2018-02-05T03:11:44.121Z,87.12
2018-02-05T03:14:12.741Z,86.97
2018-02-05T03:16:41.170Z,87.30
2018-02-05T03:19:09.586Z,87.29
2018-02-05T03:21:38.077Z,87.23
2018-02-05T03:24:06.490Z,87.00
2018-02-05T03:26:34.909Z,87.13
2018-02-05T03:29:03.392Z,87.03
2018-02-05T03:31:31.807Z,86.89
2018-02-05T03:34:00.213Z,86.70
2018-02-05T03:36:28.653Z,86.85
2018-02-05T03:38:57.067Z,87.11
2018-02-05T03:41:25.521Z,87.32
2018-02-05T03:43:53.978Z,87.40
2018-02-05T03:46:22.406Z,86.83
2018-02-05T03:48:50.811Z,87.00
2018-02-05T03:51:19.284Z,86.52
2018-02-05T03:53:47.689Z,86.73
2018-02-05T03:56:16.102Z,86.44
2018-02-05T03:58:44.558Z,86.41
2018-02-05T04:01:12.953Z,86.56
2018-02-05T04:03:41.357Z,86.80
2018-02-05T04:06:09.837Z,87.01
2018-02-05T04:08:38.274Z,87.01
2018-02-05T04:11:06.699Z,87.26
2018-02-05T04:13:35.200Z,87.33
2018-02-05T04:16:03.612Z,87.34
2018-02-05T04:18:32.050Z,87.51
2018-02-05T04:21:00.532Z,87.38
2018-02-05T04:23:28.961Z,87.20
2018-02-05T04:25:57.372Z,87.07
2018-02-05T04:28:26.087Z,86.89
2018-02-05T04:30:54.501Z,86.86
2018-02-05T04:33:22.940Z,87.26
2018-02-05T04:35:51.405Z,87.29
2018-02-05T04:38:19.835Z,86.82
2018-02-05T04:40:48.242Z,86.89
2018-02-05T04:43:16.703Z,86.60
2018-02-05T04:45:45.120Z,86.33
2018-02-05T04:48:13.538Z,86.54
2018-02-05T04:50:42.001Z,86.58
2018-02-05T04:53:10.403Z,86.39
2018-02-05T04:55:38.807Z,86.11
2018-02-05T04:58:07.291Z,86.26
2018-02-05T05:00:35.716Z,86.01
2018-02-05T05:03:04.131Z,85.53
2018-02-05T05:05:32.593Z,85.54
2018-02-05T05:08:01.005Z,85.37
2018-02-05T05:10:29.433Z,85.95
2018-02-05T05:12:57.905Z,85.63
2018-02-05T05:15:26.326Z,85.66
2018-02-05T05:17:54.735Z,85.26
2018-02-05T05:20:23.216Z,85.15
2018-02-05T05:22:51.645Z,85.16
2018-02-05T05:25:20.077Z,85.14
2018-02-05T05:27:48.536Z,84.92
2018-02-05T05:30:16.933Z,84.97
2018-02-05T05:32:45.321Z,84.99
2018-02-05T05:35:13.793Z,84.95
2018-02-05T05:37:42.215Z,84.92
2018-02-05T05:40:10.641Z,84.55
2018-02-05T05:42:39.105Z,84.33
2018-02-05T05:45:07.540Z,84.35
2018-02-05T05:47:35.945Z,84.18
2018-02-05T05:50:04.404Z,84.07
2018-02-05T05:52:32.808Z,84.17
2018-02-05T05:55:01.226Z,83.74
2018-02-05T05:57:29.673Z,83.46
2018-02-05T05:59:58.100Z,83.58
2018-02-05T06:02:26.537Z,84.30
2018-02-05T06:04:54.980Z,83.83
2018-02-05T06:07:23.404Z,83.66
2018-02-05T06:09:51.821Z,83.14
2018-02-05T06:12:20.306Z,83.63
2018-02-05T06:14:48.724Z,83.97
2018-02-05T06:17:17.130Z,84.09
2018-02-05T06:19:45.576Z,84.07
2018-02-05T06:22:13.981Z,84.03
2018-02-05T06:24:42.386Z,83.82
2018-02-05T06:27:10.849Z,84.00
2018-02-05T06:29:39.266Z,83.59
2018-02-05T06:32:07.670Z,83.52
2018-02-05T06:34:36.142Z,83.65
2018-02-05T06:37:04.553Z,83.37
2018-02-05T06:39:32.962Z,83.21
2018-02-05T06:42:01.398Z,83.23
2018-02-05T06:44:29.793Z,83.06
2018-02-05T06:46:58.210Z,83.26
2018-02-05T06:49:26.684Z,83.38
2018-02-05T06:52:06.802Z,82.93
2018-02-05T06:54:47.134Z,82.75
2018-02-05T06:57:15.532Z,83.02
2018-02-05T06:59:43.938Z,82.90
2018-02-05T07:02:12.421Z,82.94
2018-02-05T07:04:40.820Z,83.29
2018-02-05T07:07:09.241Z,82.98
2018-02-05T07:09:37.689Z,82.98
2018-02-05T07:12:06.095Z,83.00
2018-02-05T07:14:34.493Z,82.68
2018-02-05T07:17:02.929Z,82.88
2018-02-05T07:19:31.322Z,83.21
2018-02-05T07:21:59.744Z,83.26
2018-02-05T07:24:28.179Z,83.60
2018-02-05T07:26:56.569Z,83.24
2018-02-05T07:29:24.978Z,83.65
2018-02-05T07:31:53.460Z,83.42
2018-02-05T07:34:21.872Z,83.51
2018-02-05T07:36:50.275Z,83.49
2018-02-05T07:39:18.738Z,83.67
2018-02-05T07:41:47.129Z,83.48
2018-02-05T07:44:15.528Z,83.55
2018-02-05T07:46:43.965Z,83.52
2018-02-05T07:49:12.384Z,83.39
2018-02-05T07:51:40.774Z,83.43
2018-02-05T07:54:09.238Z,83.47
2018-02-05T07:56:37.660Z,82.88
2018-02-05T07:59:06.062Z,83.29
2018-02-05T08:01:34.497Z,83.24
2018-02-05T08:04:02.908Z,83.49
2018-02-05T08:06:31.321Z,83.26
2018-02-05T08:08:59.762Z,83.92
2018-02-05T08:11:28.171Z,83.74
2018-02-05T08:13:56.580Z,83.54
2018-02-05T08:16:25.042Z,83.76
2018-02-05T08:18:53.461Z,83.63
2018-02-05T08:21:21.849Z,83.65
2018-02-05T08:23:50.295Z,83.32
2018-02-05T08:26:18.705Z,83.64
2018-02-05T08:28:47.106Z,83.52
2018-02-05T08:31:15.572Z,83.35
2018-02-05T08:33:43.985Z,83.40
2018-02-05T08:36:12.381Z,83.77
2018-02-05T08:38:40.825Z,83.23
2018-02-05T08:41:09.436Z,83.04
2018-02-05T08:43:37.857Z,83.12
2018-02-05T08:46:06.385Z,83.03
2018-02-05T08:48:34.779Z,83.21
2018-02-05T08:51:03.175Z,83.20
2018-02-05T08:53:31.638Z,83.07
2018-02-05T08:56:00.033Z,82.58
2018-02-05T08:58:28.430Z,82.53
2018-02-05T09:00:56.897Z,82.13
2018-02-05T09:03:25.297Z,81.79
2018-02-05T09:05:53.714Z,81.78
2018-02-05T09:08:22.166Z,81.31
2018-02-05T09:10:50.567Z,81.12
2018-02-05T09:13:18.958Z,80.25
2018-02-05T09:15:47.420Z,79.76
2018-02-05T09:18:15.819Z,79.90
2018-02-05T09:20:44.232Z,80.55
2018-02-05T09:23:12.713Z,78.75
2018-02-05T09:25:41.133Z,78.70
2018-02-05T09:28:09.554Z,78.66
2018-02-05T09:30:37.992Z,77.96
2018-02-05T09:33:06.417Z,77.78
2018-02-05T09:35:34.825Z,76.94
2018-02-05T09:38:03.278Z,76.55
2018-02-05T09:40:31.687Z,76.99
2018-02-05T09:43:00.298Z,76.45
2018-02-05T09:45:28.750Z,75.28
2018-02-05T09:47:57.159Z,74.88
2018-02-05T09:50:25.547Z,74.38
2018-02-05T09:52:54.008Z,74.76
2018-02-05T09:55:22.431Z,74.24
2018-02-05T09:57:50.820Z,74.30
2018-02-05T10:00:19.270Z,74.75
2018-02-05T10:02:47.690Z,74.40
2018-02-05T10:05:16.110Z,72.99
2018-02-05T10:07:44.573Z,71.94
2018-02-05T10:10:12.971Z,72.04
2018-02-05T10:12:41.392Z,72.38
2018-02-05T10:15:09.849Z,73.34
2018-02-05T10:17:38.269Z,73.74
2018-02-05T10:20:06.665Z,73.74
2018-02-05T10:22:35.442Z,73.16
2018-02-05T10:25:03.870Z,72.33
2018-02-05T10:27:32.277Z,72.59
2018-02-05T10:30:00.753Z,72.98
2018-02-05T10:32:29.148Z,72.38
2018-02-05T10:34:57.629Z,71.56
2018-02-05T10:37:26.267Z,71.43
2018-02-05T10:39:54.729Z,72.15
2018-02-05T10:42:23.136Z,73.23
2018-02-05T10:44:51.596Z,72.54
2018-02-05T10:47:20.013Z,72.14
2018-02-05T10:49:48.428Z,72.10
2018-02-05T10:52:16.893Z,72.46
2018-02-05T10:54:46.208Z,72.92
2018-02-05T10:57:14.602Z,72.91
2018-02-05T10:59:43.076Z,72.61
2018-02-05T11:02:11.521Z,72.17
2018-02-05T11:04:39.933Z,71.94
2018-02-05T11:07:08.369Z,72.18
2018-02-05T11:09:36.780Z,72.70
2018-02-05T11:12:05.201Z,71.35
2018-02-05T11:14:33.661Z,70.39
2018-02-05T11:17:02.060Z,71.46
2018-02-05T11:19:30.468Z,72.87
2018-02-05T11:21:58.927Z,72.67
2018-02-05T11:24:27.353Z,73.32
2018-02-05T11:26:55.746Z,73.23
2018-02-05T11:29:24.272Z,73.86
2018-02-05T11:31:52.677Z,73.75
2018-02-05T11:34:21.061Z,74.76
2018-02-05T11:36:49.499Z,74.84
2018-02-05T11:39:17.913Z,73.78
2018-02-05T11:41:46.328Z,74.51
2018-02-05T11:44:14.776Z,73.52
2018-02-05T11:46:43.177Z,74.30
2018-02-05T11:49:11.588Z,73.78
2018-02-05T11:51:40.041Z,74.05
2018-02-05T11:54:08.456Z,73.94
2018-02-05T11:56:36.864Z,73.08
2018-02-05T11:59:05.320Z,72.54
2018-02-05T12:01:33.732Z,71.96
2018-02-05T12:04:02.128Z,72.47
2018-02-05T12:06:30.566Z,72.19
2018-02-05T12:08:59.221Z,72.40
2018-02-05T12:11:27.633Z,72.12
2018-02-05T12:13:56.110Z,72.21
2018-02-05T12:16:24.522Z,72.41
2018-02-05T12:18:52.909Z,71.94
2018-02-05T12:21:21.377Z,72.23
2018-02-05T12:23:49.797Z,71.28
2018-02-05T12:26:18.195Z,70.74
2018-02-05T12:28:46.659Z,69.93
2018-02-05T12:31:15.078Z,69.49
2018-02-05T12:33:43.485Z,71.06
2018-02-05T12:36:11.930Z,70.30
2018-02-05T12:38:40.317Z,69.79
2018-02-05T12:41:08.735Z,69.43
2018-02-05T12:43:37.169Z,68.90
2018-02-05T12:46:05.569Z,68.95
2018-02-05T12:48:33.969Z,67.61
2018-02-05T12:51:02.409Z,68.17
2018-02-05T12:53:30.827Z,66.68
2018-02-05T12:55:59.338Z,66.78
2018-02-05T12:58:27.812Z,66.70
2018-02-05T13:00:58.209Z,67.68
2018-02-05T13:03:40.548Z,68.72
2018-02-05T13:06:11.856Z,69.47
2018-02-05T13:08:40.328Z,69.87
2018-02-05T13:11:08.718Z,69.67
2018-02-05T13:13:37.125Z,71.00
2018-02-05T13:16:05.570Z,71.37
2018-02-05T13:18:33.992Z,72.13
2018-02-05T13:21:02.377Z,71.14
2018-02-05T13:23:30.818Z,71.29
2018-02-05T13:25:59.225Z,70.49
2018-02-05T13:28:27.649Z,70.42
2018-02-05T13:30:56.111Z,70.16
2018-02-05T13:33:24.517Z,70.23
2018-02-05T13:35:52.916Z,71.63
2018-02-05T13:38:21.362Z,69.31
2018-02-05T13:40:49.772Z,69.58
2018-02-05T13:43:18.178Z,68.26
2018-02-05T13:45:46.620Z,69.50
2018-02-05T13:48:15.046Z,69.16
2018-02-05T13:50:43.482Z,69.28
2018-02-05T13:53:12.132Z,69.67
2018-02-05T13:55:40.555Z,69.61
2018-02-05T13:58:08.969Z,70.17
2018-02-05T14:00:37.424Z,70.93
2018-02-05T14:03:05.832Z,70.81
2018-02-05T14:05:34.304Z,71.57
2018-02-05T14:08:02.737Z,71.68
2018-02-05T14:10:31.148Z,70.66
2018-02-05T14:12:59.577Z,69.01
2018-02-05T14:15:28.038Z,69.18
2018-02-05T14:17:56.434Z,68.44
2018-02-05T14:20:24.847Z,68.23
2018-02-05T14:22:53.294Z,67.82
2018-02-05T14:25:21.699Z,67.53
2018-02-05T14:27:50.086Z,67.45
2018-02-05T14:30:18.557Z,67.23
2018-02-05T14:32:46.950Z,67.33
2018-02-05T14:35:15.365Z,67.38
2018-02-05T14:37:43.834Z,66.87
2018-02-05T14:40:12.257Z,66.58
2018-02-05T14:42:40.669Z,66.86
2018-02-05T14:45:09.124Z,65.81
2018-02-05T14:47:37.552Z,65.38
2018-02-05T14:50:05.961Z,65.94
2018-02-05T14:52:34.402Z,66.00
2018-02-05T14:55:02.793Z,66.88
2018-02-05T14:57:31.189Z,66.56
2018-02-05T14:59:59.652Z,66.77
2018-02-05T15:02:28.052Z,67.18
2018-02-05T15:04:56.451Z,68.52
2018-02-05T15:07:24.895Z,69.48
2018-02-05T15:09:53.310Z,70.03
2018-02-05T15:12:21.710Z,69.77
2018-02-05T15:14:50.146Z,70.77
2018-02-05T15:17:18.550Z,71.06
2018-02-05T15:19:46.950Z,70.12
2018-02-05T15:22:15.391Z,70.16
2018-02-05T15:24:43.797Z,70.47
2018-02-05T15:27:12.217Z,69.26
2018-02-05T15:29:40.705Z,69.66
2018-02-05T15:32:09.105Z,68.38
2018-02-05T15:34:37.513Z,68.80
2018-02-05T15:37:05.972Z,68.78
2018-02-05T15:39:34.383Z,68.79
2018-02-05T15:42:02.805Z,69.91
2018-02-05T15:44:31.420Z,69.87
2018-02-05T15:46:59.831Z,70.33
2018-02-05T15:49:28.248Z,71.11
2018-02-05T15:51:56.690Z,71.48
2018-02-05T15:54:25.083Z,71.78
2018-02-05T15:56:53.520Z,71.96
2018-02-05T15:59:22.006Z,72.15
2018-02-05T16:01:50.403Z,71.95
2018-02-05T16:04:18.823Z,72.00
2018-02-05T16:06:47.257Z,72.45
2018-02-05T16:09:15.655Z,72.28
2018-02-05T16:11:44.061Z,72.76
2018-02-05T16:14:12.525Z,73.36
2018-02-05T16:16:40.943Z,73.54
2018-02-05T16:19:09.345Z,73.68
2018-02-05T16:21:37.796Z,74.26
2018-02-05T16:24:06.213Z,74.65
2018-02-05T16:26:34.624Z,75.36
2018-02-05T16:29:03.058Z,75.16
2018-02-05T16:31:31.449Z,75.38
2018-02-05T16:33:59.835Z,75.44
2018-02-05T16:36:28.278Z,75.62
2018-02-05T16:38:56.688Z,75.89
2018-02-05T16:41:25.080Z,75.59
2018-02-05T16:43:53.514Z,75.69
2018-02-05T16:46:21.918Z,75.36
2018-02-05T16:48:50.389Z,75.79
2018-02-05T16:51:18.833Z,75.84
2018-02-05T16:53:47.233Z,75.55
2018-02-05T16:56:15.626Z,75.67
2018-02-05T16:58:44.097Z,75.94
2018-02-05T17:01:12.505Z,76.67
2018-02-05T17:03:40.917Z,77.22
2018-02-05T17:06:09.372Z,77.02
2018-02-05T17:08:37.793Z,76.74
2018-02-05T17:11:06.177Z,77.09
2018-02-05T17:13:34.644Z,77.50
2018-02-05T17:16:03.057Z,77.57
2018-02-05T17:18:31.445Z,77.74
2018-02-05T17:20:59.907Z,77.57
2018-02-05T17:23:28.318Z,77.69
2018-02-05T17:25:56.724Z,77.86
2018-02-05T17:28:25.180Z,78.05
2018-02-05T17:30:53.589Z,77.90
2018-02-05T17:33:21.981Z,77.51
2018-02-05T17:35:50.412Z,77.04
2018-02-05T17:38:18.830Z,76.81
2018-02-05T17:40:47.251Z,77.33
2018-02-05T17:43:15.686Z,77.52
2018-02-05T17:45:44.103Z,77.97
2018-02-05T17:48:12.491Z,78.34
2018-02-05T17:50:40.953Z,78.50
2018-02-05T17:53:09.394Z,78.87
2018-02-05T17:55:37.797Z,79.06
2018-02-05T17:58:06.326Z,79.02
2018-02-05T18:00:34.837Z,78.49
2018-02-05T18:03:03.277Z,78.66
2018-02-05T18:05:31.730Z,78.85
2018-02-05T18:08:00.124Z,78.53
2018-02-05T18:10:28.523Z,78.67
2018-02-05T18:12:56.953Z,78.68
2018-02-05T18:15:25.345Z,78.53
2018-02-05T18:17:53.741Z,78.39
2018-02-05T18:20:22.191Z,78.70
2018-02-05T18:22:50.605Z,78.92
2018-02-05T18:25:19.009Z,78.97
2018-02-05T18:27:47.461Z,79.15
2018-02-05T18:30:15.876Z,78.68
2018-02-05T18:32:44.269Z,78.58
2018-02-05T18:35:13.313Z,78.62
2018-02-05T18:37:41.713Z,78.49
2018-02-05T18:40:10.190Z,78.43
2018-02-05T18:42:38.626Z,78.46
2018-02-05T18:45:07.026Z,78.05
2018-02-05T18:47:35.425Z,78.61
2018-02-05T18:50:03.911Z,78.66
2018-02-05T18:52:32.353Z,78.17
2018-02-05T18:55:00.770Z,77.66
2018-02-05T18:57:29.275Z,77.41
2018-02-05T18:59:57.711Z,77.50
2018-02-05T19:02:26.120Z,77.42
2018-02-05T19:04:54.693Z,77.53
2018-02-05T19:07:23.087Z,77.57
2018-02-05T19:09:51.483Z,78.27
2018-02-05T19:12:19.925Z,78.16
2018-02-05T19:14:48.317Z,78.27
2018-02-05T19:17:16.731Z,78.45
2018-02-05T19:19:45.185Z,78.02
2018-02-05T19:22:13.606Z,78.43
2018-02-05T19:24:42.013Z,77.98
2018-02-05T19:27:10.465Z,78.55
2018-02-05T19:29:38.852Z,78.34
2018-02-05T19:32:07.250Z,78.46
2018-02-05T19:34:35.712Z,77.83
2018-02-05T19:37:04.134Z,78.44
2018-02-05T19:39:32.544Z,78.48
2018-02-05T19:42:01.000Z,78.35
2018-02-05T19:44:29.452Z,78.29
2018-02-05T19:46:57.861Z,78.23
2018-02-05T19:49:26.293Z,78.70
2018-02-05T19:51:54.766Z,78.50
2018-02-05T19:54:23.161Z,78.33
2018-02-05T19:56:51.597Z,78.04
2018-02-05T19:59:19.979Z,78.19
2018-02-05T20:01:48.367Z,77.56
2018-02-05T20:04:16.816Z,77.56
2018-02-05T20:06:45.216Z,78.52
2018-02-05T20:09:13.598Z,77.48
2018-02-05T20:11:42.074Z,76.49
2018-02-05T20:14:10.457Z,76.27
2018-02-05T20:16:38.868Z,76.62
2018-02-05T20:19:07.305Z,77.17
2018-02-05T20:21:35.706Z,76.74
2018-02-05T20:24:04.116Z,77.12
2018-02-05T20:26:32.558Z,77.26
2018-02-05T20:29:00.949Z,77.37
2018-02-05T20:31:29.354Z,77.74
2018-02-05T20:33:57.940Z,78.21
2018-02-05T20:36:26.348Z,78.46
2018-02-05T20:38:54.757Z,78.53
2018-02-05T20:41:23.212Z,79.09
2018-02-05T20:43:51.606Z,78.58
2018-02-05T20:46:20.013Z,78.54
2018-02-05T20:48:48.460Z,78.01
2018-02-05T20:51:16.878Z,77.43
2018-02-05T20:53:45.292Z,77.85
2018-02-05T20:56:13.772Z,77.89
2018-02-05T20:58:42.207Z,78.01
2018-02-05T21:01:10.627Z,77.85
2018-02-05T21:03:39.072Z,77.39
2018-02-05T21:06:07.464Z,77.53
2018-02-05T21:08:35.870Z,77.53
2018-02-05T21:11:04.317Z,76.07
2018-02-05T21:13:32.710Z,76.29
2018-02-05T21:16:01.116Z,76.16
2018-02-05T21:18:29.548Z,76.10
2018-02-05T21:20:57.961Z,76.49
2018-02-05T21:23:26.348Z,76.72
2018-02-05T21:25:54.828Z,76.17
2018-02-05T21:28:23.221Z,75.91
2018-02-05T21:30:51.624Z,76.04
2018-02-05T21:33:20.097Z,76.12
2018-02-05T21:35:48.484Z,75.53
2018-02-05T21:38:16.898Z,75.67
2018-02-05T21:40:45.345Z,76.07
2018-02-05T21:43:13.762Z,75.94
2018-02-05T21:45:42.166Z,75.60
2018-02-05T21:48:10.625Z,76.03
2018-02-05T21:50:39.013Z,75.17
2018-02-05T21:53:07.401Z,75.63
2018-02-05T21:55:35.849Z,76.26
2018-02-05T21:58:04.265Z,76.07
2018-02-05T22:00:32.677Z,76.34
2018-02-05T22:03:01.133Z,76.14
2018-02-05T22:05:29.520Z,75.57
2018-02-05T22:07:57.959Z,75.73
2018-02-05T22:10:26.404Z,75.51
2018-02-05T22:12:54.819Z,75.12
2018-02-05T22:15:23.241Z,75.32
2018-02-05T22:17:51.681Z,74.35
2018-02-05T22:20:20.086Z,75.23
2018-02-05T22:22:48.485Z,75.29
2018-02-05T22:25:16.941Z,75.40
2018-02-05T22:27:45.351Z,74.83
2018-02-05T22:30:13.768Z,74.70
2018-02-05T22:32:42.916Z,74.72
2018-02-05T22:35:11.342Z,73.98
2018-02-05T22:37:39.743Z,74.29
2018-02-05T22:40:08.188Z,74.73
2018-02-05T22:42:36.600Z,73.97
2018-02-05T22:45:05.013Z,74.12
2018-02-05T22:47:33.461Z,73.70
2018-02-05T22:50:01.866Z,74.37
2018-02-05T22:52:30.266Z,74.44
2018-02-05T22:54:58.713Z,73.33
2018-02-05T22:57:27.116Z,73.14
2018-02-05T22:59:55.557Z,73.72
2018-02-05T23:02:23.981Z,72.95
2018-02-05T23:04:52.392Z,72.81
2018-02-05T23:07:20.781Z,73.20
2018-02-05T23:09:49.228Z,73.48
2018-02-05T23:12:17.621Z,73.45
2018-02-05T23:14:46.034Z,73.37
2018-02-05T23:17:14.489Z,73.88
2018-02-05T23:19:42.893Z,73.75
2018-02-05T23:22:11.297Z,73.73
2018-02-05T23:24:39.741Z,73.93
2018-02-05T23:27:08.133Z,74.12
2018-02-05T23:29:36.518Z,74.62
2018-02-05T23:32:04.938Z,74.69
2018-02-05T23:34:33.318Z,74.41
2018-02-05T23:37:01.713Z,74.77
2018-02-05T23:39:30.346Z,74.68
2018-02-05T23:41:58.728Z,74.70
2018-02-05T23:44:27.132Z,74.83
2018-02-05T23:46:55.597Z,74.89
2018-02-05T23:49:23.989Z,75.39
2018-02-05T23:51:52.393Z,75.11
2018-02-05T23:54:20.821Z,75.43
2018-02-05T23:56:49.208Z,75.47
2018-02-05T23:59:17.592Z,75.52
